La Grange, AR (72352)

5:12 PM CDT en Abril 27, 2015 (GMT -0500)
marianna,arrkansas | | Change Station
CLOSE
Current Station
Estación meteorológica personal
Location: Marianna, AR
Altura: 230 ft
Estaciones meteorológicas cercanas
Aviso en curso: Flood Advisory

Alt 230 ft 34.77 °N, 90.77 °W | Updated 4 minutes ago

Despejado
Despejado
67.5 ° F
Sensación térmica 67.5 ° F
N
6.3
Viento Variable Viento desde ONO

Hoy
Alta -- | Baja -- ° F
--% Posibilidad de precipitaciones
Ayer
Alta -- | Baja -- ° F
Precip. -- pul
6:17 AM 7:44 PM
Gibosa creciente, 68% visible
Presión 29.92 pul
Visibilidad 10.0 Millas
Nubes Despejado
Punto de rocío 48 ° F
Humedad 49%
Precipitaciones 0.00 pul
Espesor de la nieve No disponible.
UV 4 de una escala de 12
Polen 9.40 de una escala de 12
Calidad del aire No disponible.
Flu Activity Sporadic
METAR KUTA 272155Z AUTO 04012G15KT 10SM CLR 19/06 A2992 RMK AO2

More Conditions Fewer Conditions

Presión 29.92 pul
Visibilidad 10.0 Millas
Nubes Despejado
Punto de rocío 48 ° F
Humedad 49%
Precipitaciones 0.00 pul
Espesor de la nieve No disponible.
UV 4 de una escala de 12
Polen 9.40 de una escala de 12
Calidad del aire No disponible.
Flu Activity Sporadic
METAR KUTA 272155Z AUTO 04012G15KT 10SM CLR 19/06 A2992 RMK AO2

More Conditions Fewer Conditions

10-Day Weather Forecast

Almanac

Astronomía

Apr. 27, 2015 Salida Puesta
Hora real
Crepúsculo civil
Crepúsculo náutico
Crepúsculo astronómico
Luna
Horas de luz
Horas de luz
Tomorrow will be .
, % of the Moon is Illuminated

Extremos de hoy

Máximos del estado Bajos del estado

Community

WunderPhotos

Upload Photos

1,817,442 ¡fotos cargadas!

WunderBlogs® & News

Nearby

Calidad del aire

  Calidad del aire Índice AQ Contaminante
Not available.

Grosos de nieve

Estación Profundido Altura

Actividad de terremotos

Ciudad Distance Mag. Tiempo y dato
Magnitud mínima muestra es 2,5.

Temperaturas de aguas costeras

Lugar Temperatura

Stations

Estaciones meteorológicas cercanas

Ubicación de la estación Temp. Vientos helados Punto de rocío Humedad Viento Precip. Alt Actualizado Tipo
                   
Flood Advisory
Statement as of 11:47 AM CDT en Abril 27, 2015

The National Weather Service in Memphis TN has issued a
* Flood Advisory for
the Mississippi River at Tunica Riverpark
* from Monday April 27 until Friday may 01.
* At 10 am Monday the stage was 40.5 feet.
* Flood stage is 41.0 feet.
* Forecast... the river will rise to near 40.5 feet Monday April 27.
* At 41.0 feet... casinos are open and unaffected. Tunica Cutoff Lake
is flooding Camp lots and Riverside Drive in Lakeview Camp. In
Arkansas, Road to Farmstead inside the levee near the southeast
corner of Lee County is flooded. Water is against the toe of the
Arkansas levee in extreme sothern Crittenden County in places and
most all the way around Midway Lake.


Lat... Lon 3491 9062 3491 9022 3480 9034 3450 9051
      3455 9059 3476 9074